createdAt,value
2022-08-26T00:01:54.307Z,3.15
2022-08-26T00:04:25.209Z,2.80
2022-08-26T00:06:53.563Z,3.20
2022-08-26T00:09:20.633Z,3.85
2022-08-26T00:11:47.796Z,3.58
2022-08-26T00:14:15.327Z,3.60
2022-08-26T00:16:47.260Z,3.20
2022-08-26T00:19:21.354Z,3.88
2022-08-26T00:21:49.712Z,3.53
2022-08-26T00:24:18.630Z,3.05
2022-08-26T00:26:45.649Z,3.58
2022-08-26T00:29:13.192Z,3.47
2022-08-26T00:31:40.858Z,3.13
2022-08-26T00:34:09.476Z,4.07
2022-08-26T00:36:39.571Z,2.65
2022-08-26T00:39:08.976Z,3.22
2022-08-26T00:41:38.877Z,3.55
2022-08-26T00:44:06.645Z,3.63
2022-08-26T00:46:37.474Z,3.10
2022-08-26T00:49:12.079Z,3.65
2022-08-26T00:51:55.703Z,3.20
2022-08-26T00:54:26.998Z,2.80
2022-08-26T00:57:01.208Z,2.97
2022-08-26T00:59:29.327Z,2.88
2022-08-26T01:02:02.705Z,3.20
2022-08-26T01:04:32.193Z,2.92
2022-08-26T01:06:59.148Z,3.55
2022-08-26T01:09:27.121Z,3.00
2022-08-26T01:11:56.507Z,2.90
2022-08-26T01:14:25.052Z,3.20
2022-08-26T01:16:52.527Z,3.55
2022-08-26T01:19:23.803Z,3.50
2022-08-26T01:22:00.509Z,3.20
2022-08-26T01:24:28.861Z,2.90
2022-08-26T01:27:03.486Z,3.85
2022-08-26T01:29:32.948Z,3.35
2022-08-26T01:32:00.307Z,3.33
2022-08-26T01:34:35.097Z,4.07
2022-08-26T01:37:06.778Z,4.45
2022-08-26T01:39:35.118Z,3.63
2022-08-26T01:42:04.132Z,4.25
2022-08-26T01:44:47.869Z,4.13
2022-08-26T01:47:15.789Z,3.83
2022-08-26T01:49:46.375Z,4.18
2022-08-26T01:52:16.948Z,3.70
2022-08-26T01:54:46.268Z,3.88
2022-08-26T01:57:18.855Z,4.07
2022-08-26T01:59:46.240Z,3.78
2022-08-26T02:02:13.178Z,4.30
2022-08-26T02:04:51.821Z,4.00
2022-08-26T02:07:20.007Z,3.78
2022-08-26T02:09:49.522Z,3.78
2022-08-26T02:12:18.002Z,4.07
2022-08-26T02:14:51.944Z,3.83
2022-08-26T02:17:23.419Z,4.28
2022-08-26T02:19:50.633Z,4.20
2022-08-26T02:22:22.942Z,4.35
2022-08-26T02:24:57.516Z,4.75
2022-08-26T02:27:28.111Z,4.40
2022-08-26T02:30:13.538Z,4.30
2022-08-26T02:32:41.373Z,3.63
2022-08-26T02:35:10.311Z,3.60
2022-08-26T02:37:37.299Z,3.85
2022-08-26T02:40:06.929Z,4.13
2022-08-26T02:42:34.231Z,3.35
2022-08-26T02:45:02.367Z,3.47
2022-08-26T02:47:29.589Z,3.17
2022-08-26T02:49:59.897Z,3.42
2022-08-26T02:52:27.118Z,3.28
2022-08-26T02:54:55.284Z,4.30
2022-08-26T02:57:22.956Z,3.58
2022-08-26T02:59:51.217Z,3.40
2022-08-26T03:02:18.222Z,4.15
2022-08-26T03:04:57.964Z,4.50
2022-08-26T03:07:29.774Z,4.20
2022-08-26T03:09:57.874Z,4.10
2022-08-26T03:12:25.676Z,4.03
2022-08-26T03:14:53.133Z,3.92
2022-08-26T03:17:21.174Z,3.80
2022-08-26T03:19:50.745Z,4.18
2022-08-26T03:22:21.491Z,3.55
2022-08-26T03:24:49.714Z,3.97
2022-08-26T03:27:16.614Z,3.85
2022-08-26T03:30:03.105Z,3.45
2022-08-26T03:32:30.028Z,3.97
2022-08-26T03:34:57.605Z,4.18
2022-08-26T03:37:25.179Z,4.70
2022-08-26T03:39:52.796Z,4.63
2022-08-26T03:42:21.449Z,3.97
2022-08-26T03:44:48.748Z,4.30
2022-08-26T03:47:15.908Z,4.03
2022-08-26T03:49:43.325Z,4.57
2022-08-26T03:52:10.564Z,4.93
2022-08-26T03:54:38.520Z,4.60
2022-08-26T03:57:05.594Z,4.65
2022-08-26T03:59:32.650Z,4.90
2022-08-26T04:01:59.575Z,4.88
2022-08-26T04:04:26.752Z,4.47
2022-08-26T04:06:58.486Z,5.00
2022-08-26T04:09:27.538Z,5.00
2022-08-26T04:11:55.880Z,4.95
2022-08-26T04:14:25.789Z,4.78
2022-08-26T04:16:55.327Z,4.32
2022-08-26T04:19:24.744Z,4.63
2022-08-26T04:21:53.178Z,5.03
2022-08-26T04:24:22.176Z,4.97
2022-08-26T04:26:49.751Z,5.00
2022-08-26T04:29:20.162Z,5.30
2022-08-26T04:31:48.339Z,5.00
2022-08-26T04:34:15.744Z,4.82
2022-08-26T04:36:43.196Z,4.80
2022-08-26T04:39:18.731Z,5.38
2022-08-26T04:41:48.460Z,5.85
2022-08-26T04:44:15.378Z,5.28
2022-08-26T04:46:43.985Z,5.97
2022-08-26T04:49:12.203Z,5.50
2022-08-26T04:51:39.437Z,5.20
2022-08-26T04:54:07.267Z,5.38
2022-08-26T04:56:38.403Z,5.57
2022-08-26T04:59:16.542Z,5.22
2022-08-26T05:01:46.521Z,5.80
2022-08-26T05:04:13.894Z,5.50
2022-08-26T05:06:43.674Z,6.00
2022-08-26T05:09:11.093Z,5.65
2022-08-26T05:11:38.471Z,5.80
2022-08-26T05:14:06.102Z,5.85
2022-08-26T05:16:33.555Z,5.38
2022-08-26T05:19:00.417Z,5.55
2022-08-26T05:21:29.212Z,5.32
2022-08-26T05:23:56.770Z,5.32
2022-08-26T05:26:29.557Z,5.60
2022-08-26T05:28:57.297Z,4.97
2022-08-26T05:31:31.827Z,6.00
2022-08-26T05:34:00.555Z,5.57
2022-08-26T05:36:33.425Z,5.78
2022-08-26T05:39:01.412Z,5.78
2022-08-26T05:41:34.542Z,5.93
2022-08-26T05:44:06.274Z,5.70
2022-08-26T05:46:34.416Z,6.40
2022-08-26T05:49:01.685Z,5.63
2022-08-26T05:51:30.489Z,6.47
2022-08-26T05:53:58.444Z,5.60
2022-08-26T05:56:27.667Z,6.05
2022-08-26T05:58:56.523Z,6.20
2022-08-26T06:01:27.004Z,5.65
2022-08-26T06:03:57.673Z,5.95
2022-08-26T06:06:34.331Z,5.88
2022-08-26T06:09:04.037Z,6.43
2022-08-26T06:11:32.640Z,5.88
2022-08-26T06:14:03.880Z,6.63
2022-08-26T06:16:33.737Z,6.00
2022-08-26T06:19:02.948Z,5.57
2022-08-26T06:21:33.050Z,6.18
2022-08-26T06:24:21.753Z,5.75
2022-08-26T06:27:01.157Z,6.25
2022-08-26T06:29:29.913Z,6.38
2022-08-26T06:31:58.093Z,7.57
2022-08-26T06:34:29.640Z,6.55
2022-08-26T06:36:58.703Z,6.03
2022-08-26T06:39:25.957Z,6.60
2022-08-26T06:41:53.126Z,5.85
2022-08-26T06:44:20.931Z,6.15
2022-08-26T06:46:50.697Z,6.13
2022-08-26T06:49:26.682Z,6.13
2022-08-26T06:51:58.409Z,5.50
2022-08-26T06:54:26.884Z,6.97
2022-08-26T06:56:53.913Z,5.93
2022-08-26T06:59:21.929Z,6.20
2022-08-26T07:01:49.744Z,5.97
2022-08-26T07:04:21.889Z,6.57
2022-08-26T07:06:52.434Z,5.90
2022-08-26T07:09:22.531Z,6.50
2022-08-26T07:11:51.413Z,5.55
2022-08-26T07:14:21.550Z,5.60
2022-08-26T07:16:50.344Z,6.15
2022-08-26T07:19:29.112Z,6.10
2022-08-26T07:22:02.091Z,6.63
2022-08-26T07:24:29.299Z,6.40
2022-08-26T07:27:03.927Z,6.20
2022-08-26T07:29:33.778Z,7.30
2022-08-26T07:32:00.832Z,6.32
2022-08-26T07:34:28.033Z,6.10
2022-08-26T07:36:57.078Z,6.05
2022-08-26T07:39:25.290Z,6.10
2022-08-26T07:41:52.835Z,6.10
2022-08-26T07:44:20.167Z,6.35
2022-08-26T07:46:53.095Z,6.28
2022-08-26T07:49:25.173Z,6.43
2022-08-26T07:51:54.436Z,6.10
2022-08-26T07:54:26.697Z,6.20
2022-08-26T07:56:56.002Z,6.40
2022-08-26T07:59:23.427Z,6.60
2022-08-26T08:01:50.828Z,6.00
2022-08-26T08:04:25.552Z,6.00
2022-08-26T08:06:54.494Z,6.30
2022-08-26T08:09:22.321Z,6.47
2022-08-26T08:11:49.776Z,6.13
2022-08-26T08:14:18.871Z,5.43
2022-08-26T08:16:51.127Z,5.50
2022-08-26T08:19:21.812Z,6.13
2022-08-26T08:21:49.187Z,6.30
2022-08-26T08:24:16.588Z,6.65
2022-08-26T08:26:43.467Z,6.53
2022-08-26T08:29:10.397Z,6.03
2022-08-26T08:31:57.073Z,5.65
2022-08-26T08:34:26.409Z,5.35
2022-08-26T08:36:54.280Z,5.75
2022-08-26T08:39:22.319Z,5.75
2022-08-26T08:42:27.178Z,6.20
2022-08-26T08:44:58.262Z,5.72
2022-08-26T08:47:35.158Z,5.70
2022-08-26T08:50:22.480Z,5.97
2022-08-26T08:53:03.871Z,5.53
2022-08-26T08:55:47.281Z,5.40
2022-08-26T08:58:19.736Z,5.50
2022-08-26T09:00:52.222Z,5.40
2022-08-26T09:03:31.048Z,5.57
2022-08-26T09:06:00.439Z,5.10
2022-08-26T09:08:32.579Z,5.03
2022-08-26T09:11:01.570Z,4.82
2022-08-26T09:13:29.361Z,4.68
2022-08-26T09:16:11.795Z,5.22
2022-08-26T09:18:39.344Z,4.85
2022-08-26T09:21:09.599Z,5.38
2022-08-26T09:23:41.675Z,4.63
2022-08-26T09:26:17.896Z,5.20
2022-08-26T09:28:58.161Z,4.80
2022-08-26T09:31:30.560Z,4.70
2022-08-26T09:34:06.534Z,4.82
2022-08-26T09:36:39.500Z,4.72
2022-08-26T09:39:37.821Z,4.32
2022-08-26T09:42:11.120Z,4.57
2022-08-26T09:45:02.018Z,4.32
2022-08-26T09:47:36.467Z,4.60
2022-08-26T09:50:12.475Z,4.60
2022-08-26T09:52:40.507Z,4.45
2022-08-26T09:55:11.666Z,4.53
2022-08-26T09:57:51.245Z,3.95
2022-08-26T10:00:39.385Z,4.18
2022-08-26T10:03:10.852Z,4.03
2022-08-26T10:06:08.220Z,3.78
2022-08-26T10:08:39.518Z,3.95
2022-08-26T10:11:25.563Z,4.53
2022-08-26T10:14:04.303Z,3.70
2022-08-26T10:16:47.715Z,4.10
2022-08-26T10:19:20.519Z,3.65
2022-08-26T10:21:52.277Z,3.50
2022-08-26T10:24:30.392Z,3.97
2022-08-26T10:27:18.757Z,4.35
2022-08-26T10:29:51.052Z,3.67
2022-08-26T10:32:35.353Z,3.47
2022-08-26T10:35:10.768Z,3.97
2022-08-26T10:37:40.650Z,3.65
2022-08-26T10:40:22.874Z,4.18
2022-08-26T10:42:55.148Z,3.83
2022-08-26T10:45:25.856Z,3.95
2022-08-26T10:48:08.353Z,3.25
2022-08-26T10:50:41.524Z,3.65
2022-08-26T10:53:28.286Z,3.30
2022-08-26T10:56:18.521Z,3.35
2022-08-26T10:59:06.141Z,3.20
2022-08-26T11:01:43.552Z,3.25
2022-08-26T11:04:13.676Z,3.30
2022-08-26T11:06:40.733Z,2.75
2022-08-26T11:09:09.208Z,3.03
2022-08-26T11:11:39.735Z,3.22
2022-08-26T11:14:28.645Z,3.10
2022-08-26T11:16:58.812Z,3.35
2022-08-26T11:19:59.304Z,3.15
2022-08-26T11:22:32.102Z,3.30
2022-08-26T11:24:59.023Z,3.50
2022-08-26T11:27:26.471Z,3.40
2022-08-26T11:30:01.790Z,2.97
2022-08-26T11:32:35.003Z,3.40
2022-08-26T11:35:11.382Z,3.40
2022-08-26T11:37:48.225Z,2.92
2022-08-26T11:40:20.637Z,3.05
2022-08-26T11:43:11.495Z,2.65
2022-08-26T11:45:42.679Z,2.67
2022-08-26T11:48:41.142Z,3.47
2022-08-26T11:51:40.467Z,2.78
2022-08-26T11:54:16.617Z,2.97
2022-08-26T11:56:59.402Z,3.38
2022-08-26T12:02:13.234Z,3.38
2022-08-26T12:04:42.542Z,3.55
2022-08-26T12:07:09.978Z,3.00
2022-08-26T12:09:51.756Z,3.38
2022-08-26T12:12:24.271Z,3.33
2022-08-26T12:15:16.574Z,3.20
2022-08-26T12:17:50.490Z,3.50
2022-08-26T12:20:46.320Z,3.90
2022-08-26T12:23:35.238Z,3.45
2022-08-26T12:26:13.054Z,3.20
2022-08-26T12:28:49.492Z,3.28
2022-08-26T12:31:43.753Z,3.28
2022-08-26T12:34:18.151Z,3.00
2022-08-26T12:36:48.232Z,3.47
2022-08-26T12:39:25.530Z,2.58
2022-08-26T12:41:56.110Z,3.15
2022-08-26T12:44:54.010Z,3.20
2022-08-26T12:47:43.525Z,3.55
2022-08-26T12:50:40.054Z,2.95
2022-08-26T12:53:09.917Z,3.35
2022-08-26T12:55:39.739Z,3.80
2022-08-26T12:58:36.865Z,3.60
2022-08-26T13:01:04.123Z,3.78
2022-08-26T13:03:39.119Z,3.47
2022-08-26T13:06:08.912Z,3.75
2022-08-26T13:08:44.987Z,3.63
2022-08-26T13:11:31.943Z,3.67
2022-08-26T13:13:58.894Z,3.30
2022-08-26T13:16:26.431Z,3.75
2022-08-26T13:18:56.961Z,3.50
2022-08-26T13:21:34.188Z,4.07
2022-08-26T13:24:12.182Z,3.22
2022-08-26T13:26:40.430Z,3.50
2022-08-26T13:29:10.344Z,3.40
2022-08-26T13:31:39.803Z,2.97
2022-08-26T13:34:07.966Z,3.75
2022-08-26T13:36:35.246Z,3.28
2022-08-26T13:39:02.482Z,3.80
2022-08-26T13:41:29.865Z,3.95
2022-08-26T13:43:58.144Z,3.55
2022-08-26T13:46:27.896Z,3.50
2022-08-26T13:48:55.845Z,3.50
2022-08-26T13:51:23.395Z,3.70
2022-08-26T13:53:51.114Z,3.50
2022-08-26T13:56:18.928Z,3.47
2022-08-26T13:58:46.927Z,3.33
2022-08-26T14:01:15.796Z,3.53
2022-08-26T14:03:43.290Z,3.10
2022-08-26T14:06:10.651Z,3.22
2022-08-26T14:08:38.942Z,3.70
2022-08-26T14:11:06.143Z,3.13
2022-08-26T14:13:34.042Z,2.97
2022-08-26T14:16:02.240Z,3.10
2022-08-26T14:18:33.238Z,3.20
2022-08-26T14:21:00.470Z,3.45
2022-08-26T14:23:27.748Z,3.72
2022-08-26T14:25:54.817Z,3.20
2022-08-26T14:28:21.808Z,3.50
2022-08-26T14:30:53.201Z,3.58
2022-08-26T14:33:24.689Z,3.70
2022-08-26T14:35:52.072Z,3.33
2022-08-26T14:38:19.089Z,3.58
2022-08-26T14:40:46.170Z,3.47
2022-08-26T14:43:15.265Z,3.33
2022-08-26T14:45:43.910Z,9.50
2022-08-26T14:48:11.262Z,4.20
2022-08-26T14:50:38.409Z,3.50
2022-08-26T14:53:23.668Z,3.30
2022-08-26T14:55:50.816Z,3.70
2022-08-26T14:58:17.816Z,3.55
2022-08-26T15:00:44.764Z,3.45
2022-08-26T15:03:12.030Z,3.38
2022-08-26T15:05:48.076Z,4.07
2022-08-26T15:08:15.956Z,3.70
2022-08-26T15:10:42.796Z,3.63
2022-08-26T15:13:09.753Z,3.90
2022-08-26T15:15:37.995Z,4.00
2022-08-26T15:18:05.526Z,3.92
2022-08-26T15:23:06.994Z,4.00
2022-08-26T15:25:34.439Z,3.50
2022-08-26T16:42:57.698Z,4.72
2022-08-26T16:45:25.412Z,4.53
2022-08-26T16:47:52.743Z,4.63
2022-08-26T16:50:20.619Z,4.93
2022-08-26T16:52:51.612Z,4.75
2022-08-26T16:55:23.340Z,4.70
2022-08-26T16:57:50.960Z,5.05
2022-08-26T17:00:28.193Z,5.10
2022-08-26T17:02:56.176Z,5.22
2022-08-26T17:05:25.231Z,5.10
2022-08-26T17:07:52.935Z,4.85
2022-08-26T17:10:20.972Z,5.70
2022-08-26T17:12:48.860Z,4.80
2022-08-26T17:15:17.007Z,5.25
2022-08-26T17:17:44.427Z,5.78
2022-08-26T17:20:14.346Z,4.72
2022-08-26T17:22:44.247Z,4.97
2022-08-26T17:25:22.878Z,7.80
2022-08-26T17:27:50.143Z,7.03
2022-08-26T17:30:17.794Z,7.07
2022-08-26T17:32:45.322Z,6.55
2022-08-26T17:35:13.354Z,6.78
2022-08-26T17:37:41.120Z,6.10
2022-08-26T17:40:10.674Z,5.65
2022-08-26T17:42:38.527Z,5.82
2022-08-26T17:45:06.233Z,5.50
2022-08-26T17:47:34.008Z,5.60
2022-08-26T17:50:01.960Z,5.35
2022-08-26T17:52:30.443Z,5.70
2022-08-26T17:54:57.711Z,6.15
2022-08-26T17:57:25.219Z,5.78
2022-08-26T17:59:52.841Z,6.18
2022-08-26T18:02:21.083Z,5.78
2022-08-26T18:04:48.599Z,5.55
2022-08-26T18:07:16.383Z,5.97
2022-08-26T18:09:43.593Z,6.05
2022-08-26T18:12:11.599Z,5.70
2022-08-26T18:14:38.617Z,5.78
2022-08-26T18:17:05.680Z,5.75
2022-08-26T18:19:32.863Z,6.63
2022-08-26T18:21:59.762Z,5.38
2022-08-26T18:24:30.337Z,5.57
2022-08-26T18:26:58.283Z,6.10
2022-08-26T18:29:25.550Z,5.47
2022-08-26T18:31:52.483Z,5.63
2022-08-26T18:34:19.908Z,5.35
2022-08-26T18:36:47.155Z,5.78
2022-08-26T18:39:15.618Z,6.05
2022-08-26T18:41:45.502Z,5.50
2022-08-26T18:44:14.015Z,5.63
2022-08-26T18:46:41.910Z,6.22
2022-08-26T18:49:11.016Z,6.45
2022-08-26T18:51:38.249Z,5.03
2022-08-26T18:54:06.714Z,5.70
2022-08-26T18:56:35.970Z,5.93
2022-08-26T18:59:04.989Z,5.85
2022-08-26T19:01:33.744Z,6.40
2022-08-26T19:04:03.099Z,6.20
2022-08-26T19:06:32.888Z,6.07
2022-08-26T19:09:00.274Z,6.07
2022-08-26T19:11:32.275Z,6.35
2022-08-26T19:14:09.104Z,6.70
2022-08-26T19:16:36.792Z,5.85
2022-08-26T19:19:03.867Z,5.88
2022-08-26T19:21:33.152Z,6.45
2022-08-26T19:24:03.035Z,5.65
2022-08-26T19:26:30.607Z,6.18
2022-08-26T19:28:58.860Z,6.03
2022-08-26T19:31:26.445Z,5.88
2022-08-26T19:33:53.512Z,6.28
2022-08-26T19:36:23.536Z,6.30
2022-08-26T19:38:50.666Z,6.82
2022-08-26T19:41:20.489Z,6.32
2022-08-26T19:43:47.745Z,6.72
2022-08-26T19:46:20.121Z,6.90
2022-08-26T19:48:47.506Z,6.68
2022-08-26T19:51:15.782Z,6.40
2022-08-26T19:53:44.178Z,6.00
2022-08-26T19:56:11.625Z,6.32
2022-08-26T19:58:38.982Z,5.68
2022-08-26T20:01:07.005Z,5.72
2022-08-26T20:03:34.699Z,6.55
2022-08-26T20:06:06.536Z,6.28
2022-08-26T20:08:34.547Z,6.97
2022-08-26T20:11:09.049Z,6.70
2022-08-26T20:13:36.977Z,6.70
2022-08-26T20:16:04.600Z,7.43
2022-08-26T20:18:50.143Z,6.45
2022-08-26T20:21:26.388Z,6.53
2022-08-26T20:24:12.520Z,6.68
2022-08-26T20:26:41.406Z,6.82
2022-08-26T20:29:09.696Z,6.35
2022-08-26T20:31:36.830Z,6.22
2022-08-26T20:34:05.275Z,6.88
2022-08-26T20:36:33.009Z,6.35
2022-08-26T20:39:00.080Z,5.70
2022-08-26T20:41:27.623Z,6.95
2022-08-26T20:43:54.934Z,7.90
2022-08-26T20:46:24.898Z,6.63
2022-08-26T20:48:53.199Z,7.07
2022-08-26T20:51:20.788Z,7.15
2022-08-26T20:53:47.703Z,7.30
2022-08-26T20:56:16.017Z,7.50
2022-08-26T20:58:43.205Z,7.35
2022-08-26T21:01:18.399Z,7.25
2022-08-26T21:03:45.920Z,7.38
2022-08-26T21:06:13.015Z,7.07
2022-08-26T21:08:42.615Z,7.65
2022-08-26T21:11:11.529Z,7.60
2022-08-26T21:13:54.458Z,7.88
2022-08-26T21:16:25.918Z,6.95
2022-08-26T21:18:53.100Z,7.22
2022-08-26T21:21:25.155Z,7.38
2022-08-26T21:23:52.431Z,7.75
2022-08-26T21:26:19.631Z,8.38
2022-08-26T21:28:47.213Z,7.80
2022-08-26T21:31:16.971Z,8.02
2022-08-26T21:33:43.994Z,8.43
2022-08-26T21:36:12.210Z,8.07
2022-08-26T21:38:39.769Z,7.43
2022-08-26T21:41:11.897Z,7.47
2022-08-26T21:43:40.513Z,7.65
2022-08-26T21:46:16.821Z,7.88
2022-08-26T21:48:49.915Z,8.25
2022-08-26T21:51:21.209Z,8.48
2022-08-26T21:53:48.552Z,8.05
2022-08-26T21:56:17.877Z,8.75
2022-08-26T21:58:45.583Z,8.60
2022-08-26T22:01:16.077Z,9.90
2022-08-26T22:03:47.259Z,8.10
2022-08-26T22:06:21.374Z,7.32
2022-08-26T22:08:48.763Z,8.32
2022-08-26T22:11:15.976Z,8.07
2022-08-26T22:13:43.332Z,9.13
2022-08-26T22:16:10.572Z,8.35
2022-08-26T22:18:38.152Z,8.73
2022-08-26T22:21:10.568Z,9.10
2022-08-26T22:23:38.477Z,8.23
2022-08-26T22:26:06.949Z,8.65
2022-08-26T22:28:34.932Z,8.90
2022-08-26T22:31:02.137Z,9.30
2022-08-26T22:33:29.127Z,8.98
2022-08-26T22:35:56.372Z,8.90
2022-08-26T22:38:24.040Z,9.88
2022-08-26T22:40:56.074Z,9.63
2022-08-26T22:43:24.810Z,10.82
2022-08-26T22:45:52.989Z,9.40
2022-08-26T22:48:22.602Z,9.90
2022-08-26T22:50:57.147Z,9.93
2022-08-26T22:53:26.524Z,8.73
2022-08-26T22:55:54.441Z,8.90
2022-08-26T22:58:21.641Z,9.63
2022-08-26T23:00:59.296Z,9.70
2022-08-26T23:03:26.907Z,9.65
2022-08-26T23:05:55.540Z,10.00
2022-08-26T23:08:23.638Z,9.90
2022-08-26T23:10:51.447Z,9.05
2022-08-26T23:13:18.714Z,9.95
2022-08-26T23:15:46.225Z,9.10
2022-08-26T23:18:14.341Z,8.52
2022-08-26T23:20:41.896Z,9.68
2022-08-26T23:23:09.487Z,9.50
2022-08-26T23:25:36.779Z,9.45
2022-08-26T23:28:04.227Z,10.90
2022-08-26T23:30:33.099Z,11.02
2022-08-26T23:33:00.222Z,9.68
2022-08-26T23:35:27.617Z,9.93
2022-08-26T23:37:55.095Z,11.02
2022-08-26T23:40:30.167Z,10.65
2022-08-26T23:42:58.749Z,9.68
2022-08-26T23:45:26.574Z,10.45
2022-08-26T23:47:54.235Z,10.55
2022-08-26T23:50:22.979Z,9.32
2022-08-26T23:53:09.009Z,10.05
2022-08-26T23:55:38.080Z,10.18
2022-08-26T23:58:05.936Z,10.13
